createdAt,value
2017-12-13T00:00:27.756Z,6.87
2017-12-13T00:02:56.040Z,7.55
2017-12-13T00:05:23.533Z,7.00
2017-12-13T00:07:51.027Z,7.37
2017-12-13T00:10:18.515Z,6.18
2017-12-13T00:12:46.163Z,7.90
2017-12-13T00:15:14.414Z,6.70
2017-12-13T00:17:41.903Z,6.72
2017-12-13T00:20:10.164Z,6.05
2017-12-13T00:22:38.434Z,6.75
2017-12-13T00:25:05.923Z,6.40
2017-12-13T00:27:33.423Z,6.00
2017-12-13T00:30:00.915Z,6.62
2017-12-13T00:32:29.191Z,7.35
2017-12-13T00:34:57.506Z,6.90
2017-12-13T00:37:24.978Z,6.53
2017-12-13T00:39:52.474Z,6.12
2017-12-13T00:42:19.967Z,6.47
2017-12-13T00:44:47.464Z,6.87
2017-12-13T00:47:15.171Z,6.25
2017-12-13T00:49:43.432Z,7.28
2017-12-13T00:52:11.104Z,6.28
2017-12-13T00:54:39.360Z,5.78
2017-12-13T00:57:06.847Z,6.90
2017-12-13T00:59:35.122Z,6.22
2017-12-13T01:02:03.405Z,6.45
2017-12-13T01:04:31.655Z,6.90
2017-12-13T01:06:59.142Z,6.82
2017-12-13T01:09:26.649Z,6.85
2017-12-13T01:11:54.139Z,5.95
2017-12-13T01:14:22.415Z,6.90
2017-12-13T01:16:50.675Z,7.53
2017-12-13T01:19:18.163Z,6.60
2017-12-13T01:21:46.436Z,5.47
2017-12-13T01:24:14.696Z,6.93
2017-12-13T01:26:42.191Z,5.85
2017-12-13T01:29:09.686Z,6.25
2017-12-13T01:31:37.180Z,5.75
2017-12-13T01:34:05.450Z,7.07
2017-12-13T01:36:33.707Z,6.43
2017-12-13T01:39:01.211Z,6.72
2017-12-13T01:41:28.699Z,6.80
2017-12-13T01:43:56.212Z,6.80
2017-12-13T01:46:24.488Z,6.90
2017-12-13T01:48:52.863Z,7.05
2017-12-13T01:51:21.127Z,7.55
2017-12-13T01:53:48.651Z,7.22
2017-12-13T01:56:16.143Z,7.05
2017-12-13T01:58:43.651Z,7.95
2017-12-13T02:01:11.164Z,6.87
2017-12-13T02:03:38.836Z,7.35
2017-12-13T02:06:07.097Z,8.93
2017-12-13T02:08:34.587Z,7.53
2017-12-13T02:11:02.107Z,8.07
2017-12-13T02:13:29.612Z,8.07
2017-12-13T02:15:57.115Z,8.15
2017-12-13T02:18:24.623Z,8.43
2017-12-13T02:20:52.119Z,8.77
2017-12-13T02:23:19.640Z,9.10
2017-12-13T02:25:47.131Z,7.57
2017-12-13T02:28:14.623Z,7.07
2017-12-13T02:30:42.879Z,7.78
2017-12-13T02:33:10.367Z,6.22
2017-12-13T02:35:38.641Z,8.80
2017-12-13T02:38:06.907Z,8.75
2017-12-13T02:40:46.419Z,9.18
2017-12-13T02:43:13.924Z,8.90
2017-12-13T02:45:42.199Z,9.13
2017-12-13T02:48:10.459Z,8.30
2017-12-13T02:50:37.958Z,9.02
2017-12-13T02:53:05.456Z,9.40
2017-12-13T02:55:32.973Z,9.95
2017-12-13T02:58:00.471Z,9.77
2017-12-13T03:00:28.054Z,10.75
2017-12-13T03:02:55.568Z,10.95
2017-12-13T03:05:23.062Z,9.75
2017-12-13T03:07:50.580Z,8.65
2017-12-13T03:10:18.084Z,9.23
2017-12-13T03:12:45.599Z,10.82
2017-12-13T03:15:13.115Z,10.25
2017-12-13T03:17:41.387Z,10.50
2017-12-13T03:20:09.652Z,10.13
2017-12-13T03:22:37.335Z,11.70
2017-12-13T03:25:05.602Z,10.25
2017-12-13T03:27:33.860Z,9.65
2017-12-13T03:30:01.357Z,11.23
2017-12-13T03:32:28.879Z,11.05
2017-12-13T03:34:56.383Z,11.32
2017-12-13T03:37:24.020Z,11.55
2017-12-13T03:39:52.290Z,11.12
2017-12-13T03:42:20.775Z,11.55
2017-12-13T03:44:49.068Z,12.00
2017-12-13T03:47:16.567Z,10.55
2017-12-13T03:49:44.063Z,11.05
2017-12-13T03:52:12.448Z,12.98
2017-12-13T03:54:40.715Z,11.57
2017-12-13T03:57:08.985Z,13.27
2017-12-13T03:59:36.474Z,12.40
2017-12-13T04:02:03.975Z,12.05
2017-12-13T04:04:31.691Z,12.02
2017-12-13T04:06:59.951Z,11.50
2017-12-13T04:09:28.439Z,13.52
2017-12-13T04:11:56.702Z,13.23
2017-12-13T04:14:24.986Z,12.15
2017-12-13T04:16:53.260Z,12.48
2017-12-13T04:19:21.543Z,14.00
2017-12-13T04:21:49.809Z,11.70
2017-12-13T04:24:17.320Z,11.35
2017-12-13T04:26:44.815Z,12.35
2017-12-13T04:29:12.313Z,13.75
2017-12-13T04:31:39.840Z,12.48
2017-12-13T04:34:07.345Z,11.95
2017-12-13T04:36:34.835Z,11.02
2017-12-13T04:39:02.331Z,12.40
2017-12-13T04:41:30.601Z,13.40
2017-12-13T04:43:58.875Z,13.45
2017-12-13T04:46:27.135Z,13.90
2017-12-13T04:48:54.639Z,13.10
2017-12-13T04:51:22.136Z,11.82
2017-12-13T04:53:49.657Z,12.55
2017-12-13T04:56:17.160Z,13.57
2017-12-13T04:58:44.658Z,13.95
2017-12-13T05:01:12.935Z,13.52
2017-12-13T05:03:41.194Z,14.25
2017-12-13T05:06:09.678Z,13.30
2017-12-13T05:08:37.988Z,13.38
2017-12-13T05:11:05.791Z,13.62
2017-12-13T05:13:33.291Z,13.73
2017-12-13T05:16:01.557Z,16.17
2017-12-13T05:18:29.824Z,13.43
2017-12-13T05:20:57.321Z,17.27
2017-12-13T05:23:24.850Z,14.52
2017-12-13T05:25:53.130Z,13.43
2017-12-13T05:28:21.395Z,13.40
2017-12-13T05:30:49.064Z,14.93
2017-12-13T05:33:17.351Z,12.80
2017-12-13T05:35:45.615Z,13.75
2017-12-13T05:38:13.885Z,14.07
2017-12-13T05:40:41.387Z,16.83
2017-12-13T05:43:08.897Z,14.90
2017-12-13T05:45:36.399Z,13.43
2017-12-13T05:48:03.900Z,13.52
2017-12-13T05:50:31.407Z,14.98
2017-12-13T05:52:58.931Z,15.85
2017-12-13T05:55:26.544Z,13.70
2017-12-13T05:57:54.042Z,15.45
2017-12-13T06:00:21.539Z,16.05
2017-12-13T06:02:49.059Z,14.73
2017-12-13T06:05:16.568Z,14.55
2017-12-13T06:07:44.064Z,14.27
2017-12-13T06:10:11.560Z,15.45
2017-12-13T06:12:39.819Z,15.02
2017-12-13T06:15:07.359Z,16.42
2017-12-13T06:17:34.857Z,14.68
2017-12-13T06:20:03.115Z,18.17
2017-12-13T06:22:30.611Z,15.90
2017-12-13T06:24:58.107Z,14.55
2017-12-13T06:27:25.616Z,14.55
2017-12-13T06:29:53.119Z,14.30
2017-12-13T06:32:20.615Z,15.25
2017-12-13T06:34:48.899Z,15.20
2017-12-13T06:37:17.164Z,16.55
2017-12-13T06:39:45.434Z,14.23
2017-12-13T06:42:13.816Z,15.52
2017-12-13T06:44:42.099Z,14.77
2017-12-13T06:47:10.375Z,13.20
2017-12-13T06:49:38.635Z,15.70
2017-12-13T06:52:06.139Z,16.00
2017-12-13T06:54:33.775Z,16.95
2017-12-13T06:57:02.059Z,16.48
2017-12-13T06:59:30.319Z,13.90
2017-12-13T07:01:58.580Z,15.15
2017-12-13T07:04:26.870Z,16.27
2017-12-13T07:06:54.364Z,16.30
2017-12-13T07:09:21.882Z,17.73
2017-12-13T07:11:49.381Z,19.20
2017-12-13T07:14:16.872Z,20.95
2017-12-13T07:16:44.368Z,20.08
2017-12-13T07:19:12.678Z,16.40
2017-12-13T07:21:40.236Z,18.02
2017-12-13T07:24:07.731Z,22.15
2017-12-13T07:26:35.241Z,15.48
2017-12-13T07:29:02.778Z,17.10
2017-12-13T07:31:30.292Z,13.40
2017-12-13T07:33:57.796Z,14.55
2017-12-13T07:36:26.056Z,15.38
2017-12-13T07:38:53.548Z,15.75
2017-12-13T07:41:21.091Z,15.05
2017-12-13T07:43:49.371Z,16.48
2017-12-13T07:46:17.633Z,14.82
2017-12-13T07:48:45.895Z,13.35
2017-12-13T07:51:13.409Z,15.05
2017-12-13T07:53:41.254Z,14.30
2017-12-13T07:56:09.515Z,13.38
2017-12-13T07:58:37.799Z,15.40
2017-12-13T08:01:06.062Z,14.65
2017-12-13T08:03:33.576Z,13.70
2017-12-13T08:06:01.071Z,13.30
2017-12-13T08:08:28.583Z,12.93
2017-12-13T08:10:56.104Z,14.10
2017-12-13T08:13:24.378Z,14.05
2017-12-13T08:15:52.638Z,13.32
2017-12-13T08:18:20.147Z,13.40
2017-12-13T08:20:47.659Z,13.68
2017-12-13T08:23:15.159Z,14.00
2017-12-13T08:25:42.663Z,14.32
2017-12-13T08:28:10.155Z,13.80
2017-12-13T08:30:38.415Z,13.88
2017-12-13T08:33:05.914Z,12.52
2017-12-13T08:35:33.411Z,13.38
2017-12-13T08:38:00.907Z,12.80
2017-12-13T08:40:29.167Z,14.15
2017-12-13T08:42:57.431Z,12.45
2017-12-13T08:45:24.928Z,13.38
2017-12-13T08:47:52.435Z,13.43
2017-12-13T08:50:19.945Z,11.93
2017-12-13T08:52:47.467Z,13.18
2017-12-13T08:55:14.963Z,11.95
2017-12-13T08:57:42.470Z,13.15
2017-12-13T09:00:09.968Z,13.00
2017-12-13T09:02:38.243Z,13.98
2017-12-13T09:05:06.511Z,12.27
2017-12-13T09:07:34.771Z,13.20
2017-12-13T09:10:03.036Z,13.35
2017-12-13T09:12:30.667Z,13.20
2017-12-13T09:14:58.191Z,12.95
2017-12-13T09:17:25.728Z,12.93
2017-12-13T09:19:53.223Z,13.10
2017-12-13T09:22:20.725Z,13.32
2017-12-13T09:24:48.232Z,15.13
2017-12-13T09:27:15.747Z,14.63
2017-12-13T09:29:43.443Z,13.07
2017-12-13T09:32:11.711Z,14.43
2017-12-13T09:34:40.004Z,14.85
2017-12-13T09:37:08.267Z,15.68
2017-12-13T09:39:36.527Z,16.58
2017-12-13T09:42:04.024Z,16.02
2017-12-13T09:44:31.527Z,16.17
2017-12-13T09:46:59.019Z,16.73
2017-12-13T09:49:27.282Z,15.38
2017-12-13T09:51:54.780Z,15.38
2017-12-13T09:54:22.283Z,16.20
2017-12-13T09:56:49.784Z,14.50
2017-12-13T09:59:18.063Z,14.10
2017-12-13T10:01:45.590Z,14.52
2017-12-13T10:04:13.873Z,16.30
2017-12-13T10:06:41.371Z,16.95
2017-12-13T10:09:08.872Z,14.38
2017-12-13T10:11:37.155Z,14.23
2017-12-13T10:14:04.667Z,15.27
2017-12-13T10:16:32.198Z,14.75
2017-12-13T10:19:00.459Z,15.10
2017-12-13T10:21:27.985Z,14.60
2017-12-13T10:23:55.493Z,16.40
2017-12-13T10:26:23.756Z,14.60
2017-12-13T10:28:52.022Z,15.07
2017-12-13T10:31:19.551Z,12.77
2017-12-13T10:33:47.068Z,12.98
2017-12-13T10:36:15.335Z,10.20
2017-12-13T10:38:43.599Z,9.65
2017-12-13T10:41:11.866Z,10.70
2017-12-13T10:43:39.357Z,10.25
2017-12-13T10:46:06.873Z,10.20
2017-12-13T10:48:35.160Z,12.02
2017-12-13T10:51:02.665Z,12.52
2017-12-13T10:53:30.162Z,14.00
2017-12-13T10:55:57.856Z,11.30
2017-12-13T10:58:26.123Z,11.73
2017-12-13T11:00:53.634Z,10.50
2017-12-13T11:03:21.140Z,11.18
2017-12-13T11:05:48.651Z,9.30
2017-12-13T11:08:16.148Z,10.20
2017-12-13T11:10:43.647Z,10.40
2017-12-13T11:13:11.161Z,12.27
2017-12-13T11:15:38.671Z,9.25
2017-12-13T11:18:06.168Z,10.77
2017-12-13T11:20:33.666Z,9.68
2017-12-13T11:23:01.938Z,10.40
2017-12-13T11:25:30.198Z,11.05
2017-12-13T11:27:58.475Z,11.70
2017-12-13T11:30:25.997Z,11.45
2017-12-13T11:32:53.495Z,12.30
2017-12-13T11:35:21.767Z,11.55
2017-12-13T11:37:49.291Z,13.68
2017-12-13T11:40:16.791Z,13.85
2017-12-13T11:42:45.079Z,12.30
2017-12-13T11:45:13.344Z,12.88
2017-12-13T11:47:41.618Z,12.82
2017-12-13T11:50:09.880Z,8.88
2017-12-13T11:52:37.383Z,8.93
2017-12-13T11:55:04.876Z,6.90
2017-12-13T11:57:32.376Z,17.12
2017-12-13T12:00:00.647Z,11.12
2017-12-13T12:02:29.343Z,10.35
2017-12-13T12:04:57.602Z,8.88
2017-12-13T12:07:25.096Z,8.45
2017-12-13T12:12:26.499Z,8.18
2017-12-13T12:14:53.996Z,9.43
2017-12-13T12:17:22.275Z,9.55
2017-12-13T12:19:50.556Z,8.63
2017-12-13T12:22:18.809Z,8.30
2017-12-13T12:24:46.316Z,11.00
2017-12-13T12:27:13.802Z,8.20
2017-12-13T12:29:41.312Z,8.98
2017-12-13T12:32:09.578Z,7.90
2017-12-13T12:34:37.840Z,8.32
2017-12-13T12:37:05.343Z,8.05
2017-12-13T12:39:32.851Z,7.40
2017-12-13T12:42:00.342Z,7.57
2017-12-13T12:44:28.612Z,6.50
2017-12-13T12:46:56.879Z,8.27
2017-12-13T12:49:25.147Z,6.15
2017-12-13T12:51:52.640Z,6.78
2017-12-13T12:54:20.160Z,7.00
2017-12-13T12:56:47.654Z,8.17
2017-12-13T12:59:15.191Z,8.60
2017-12-13T13:01:43.458Z,7.77
2017-12-13T13:04:11.735Z,9.63
2017-12-13T13:06:40.023Z,12.80
2017-12-13T13:09:08.289Z,16.50
2017-12-13T13:11:36.559Z,25.50
2017-12-13T13:14:04.082Z,33.07
2017-12-13T13:16:31.582Z,24.43
2017-12-13T13:18:59.091Z,12.87
2017-12-13T13:21:26.607Z,10.00
2017-12-13T13:23:54.874Z,6.97
2017-12-13T13:26:22.391Z,6.33
2017-12-13T13:28:49.886Z,5.90
2017-12-13T13:31:17.395Z,4.70
2017-12-13T13:33:44.892Z,4.53
2017-12-13T13:36:13.172Z,5.13
2017-12-13T13:38:40.667Z,5.60
2017-12-13T13:41:08.167Z,5.80
2017-12-13T13:43:35.674Z,6.00
2017-12-13T13:46:03.942Z,6.67
2017-12-13T13:48:32.203Z,5.43
2017-12-13T13:51:01.215Z,5.43
2017-12-13T13:53:29.492Z,5.50
2017-12-13T13:55:57.768Z,7.10
2017-12-13T13:58:26.051Z,6.00
2017-12-13T14:00:54.311Z,5.77
2017-12-13T14:03:22.583Z,5.07
2017-12-13T14:05:50.967Z,5.07
2017-12-13T14:08:19.230Z,5.22
2017-12-13T14:10:46.731Z,4.18
2017-12-13T14:13:14.250Z,4.37
2017-12-13T14:15:41.748Z,3.67
2017-12-13T14:18:09.243Z,3.80
2017-12-13T14:20:36.731Z,5.25
2017-12-13T14:23:04.231Z,4.50
2017-12-13T14:25:31.729Z,5.10
2017-12-13T14:27:59.227Z,5.53
2017-12-13T14:30:26.880Z,4.85
2017-12-13T14:32:55.136Z,6.65
2017-12-13T14:35:22.641Z,5.50
2017-12-13T14:37:50.147Z,5.53
2017-12-13T14:40:17.686Z,6.00
2017-12-13T14:42:45.165Z,6.03
2017-12-13T14:45:12.663Z,6.20
2017-12-13T14:47:40.157Z,5.32
2017-12-13T14:50:07.663Z,5.05
2017-12-13T14:52:36.144Z,4.75
2017-12-13T14:55:04.395Z,4.75
2017-12-13T14:57:31.884Z,4.05
2017-12-13T15:00:00.139Z,3.60
2017-12-13T15:02:28.398Z,3.60
2017-12-13T15:04:55.916Z,3.97
2017-12-13T15:07:23.419Z,3.37
2017-12-13T15:09:50.930Z,3.67
2017-12-13T15:12:18.432Z,3.85
2017-12-13T15:14:45.919Z,4.30
2017-12-13T15:17:14.176Z,5.10
2017-12-13T15:19:41.690Z,4.40
2017-12-13T15:22:09.196Z,5.70
2017-12-13T15:24:36.695Z,4.65
2017-12-13T15:27:04.192Z,4.62
2017-12-13T15:29:31.680Z,5.22
2017-12-13T15:31:59.280Z,6.00
2017-12-13T15:34:26.779Z,5.93
2017-12-13T15:36:54.283Z,5.60
2017-12-13T15:39:21.791Z,6.37
2017-12-13T15:41:49.299Z,8.05
2017-12-13T15:44:16.795Z,7.85
2017-12-13T15:46:44.291Z,6.87
2017-12-13T15:49:12.564Z,6.22
2017-12-13T15:51:40.062Z,6.03
2017-12-13T15:54:07.547Z,5.35
2017-12-13T15:56:35.040Z,5.25
2017-12-13T15:59:03.300Z,5.43
2017-12-13T16:01:30.809Z,4.50
2017-12-13T16:03:58.318Z,5.47
2017-12-13T16:06:25.810Z,5.20
2017-12-13T16:08:54.093Z,4.95
2017-12-13T16:11:21.587Z,5.20
2017-12-13T16:13:49.100Z,8.40
2017-12-13T16:16:17.588Z,9.75
2017-12-13T16:18:45.083Z,8.60
2017-12-13T16:21:12.587Z,7.20
2017-12-13T16:23:40.842Z,7.53
2017-12-13T16:26:08.340Z,7.22
2017-12-13T16:28:35.839Z,7.50
2017-12-13T16:31:03.343Z,13.40
2017-12-13T16:33:31.619Z,10.10
2017-12-13T16:35:59.886Z,9.52
2017-12-13T16:38:28.159Z,9.18
2017-12-13T16:40:55.656Z,8.07
2017-12-13T16:43:23.167Z,8.00
2017-12-13T16:45:50.668Z,16.33
2017-12-13T16:48:18.174Z,20.70
2017-12-13T16:50:45.694Z,14.10
2017-12-13T16:53:13.192Z,8.73
2017-12-13T16:55:40.701Z,13.27
2017-12-13T16:58:08.203Z,17.05
2017-12-13T17:00:35.703Z,12.30
2017-12-13T17:03:03.989Z,9.32
2017-12-13T17:05:31.487Z,8.40
2017-12-13T17:07:59.003Z,8.02
2017-12-13T17:10:26.505Z,8.18
2017-12-13T17:12:54.024Z,7.55
2017-12-13T17:15:21.516Z,8.05
2017-12-13T17:17:49.011Z,7.62
2017-12-13T17:20:16.499Z,7.65
2017-12-13T17:22:44.143Z,7.25
2017-12-13T17:25:12.410Z,7.43
2017-12-13T17:27:40.679Z,13.73
2017-12-13T17:30:08.207Z,19.37
2017-12-13T17:32:35.731Z,11.02
2017-12-13T17:35:03.232Z,18.05
2017-12-13T17:37:30.735Z,13.82
2017-12-13T17:39:59.017Z,16.37
2017-12-13T17:42:26.520Z,11.18
2017-12-13T17:44:54.033Z,12.13
2017-12-13T17:47:21.534Z,18.12
2017-12-13T17:49:49.043Z,17.10
2017-12-13T17:52:17.314Z,10.73
2017-12-13T17:54:46.731Z,13.15
2017-12-13T17:57:14.227Z,13.05
2017-12-13T17:59:41.943Z,10.77
2017-12-13T18:02:10.220Z,8.13
2017-12-13T18:04:38.481Z,21.15
2017-12-13T18:07:06.749Z,18.08
2017-12-13T18:09:34.268Z,13.13
2017-12-13T18:12:01.776Z,24.50
2017-12-13T18:14:30.064Z,19.48
2017-12-13T18:16:58.327Z,22.20
2017-12-13T18:19:26.629Z,10.90
2017-12-13T18:21:54.875Z,7.97
2017-12-13T18:24:22.370Z,8.60
2017-12-13T18:26:49.863Z,7.55
2017-12-13T18:29:17.356Z,7.25
2017-12-13T18:31:45.627Z,7.45
2017-12-13T18:34:13.135Z,6.70
2017-12-13T18:36:40.623Z,7.10
2017-12-13T18:39:08.115Z,7.35
2017-12-13T18:41:36.391Z,7.40
2017-12-13T18:44:04.642Z,7.00
2017-12-13T18:46:32.135Z,6.20
2017-12-13T18:48:59.625Z,6.57
2017-12-13T18:51:27.140Z,7.10
2017-12-13T18:53:55.399Z,6.03
2017-12-13T18:56:22.901Z,6.40
2017-12-13T18:58:50.395Z,6.30
2017-12-13T19:01:17.884Z,6.85
2017-12-13T19:03:46.151Z,6.90
2017-12-13T19:06:13.639Z,8.73
2017-12-13T19:08:41.131Z,8.27
2017-12-13T19:11:08.640Z,11.15
2017-12-13T19:13:36.903Z,14.00
2017-12-13T19:16:05.190Z,6.95
2017-12-13T19:18:33.459Z,7.95
2017-12-13T19:21:01.722Z,6.40
2017-12-13T19:23:29.236Z,5.80
2017-12-13T19:25:56.742Z,6.40
2017-12-13T19:28:24.230Z,6.60
2017-12-13T19:30:52.497Z,12.75
2017-12-13T19:33:20.751Z,9.65
2017-12-13T19:35:48.246Z,9.05
2017-12-13T19:38:15.739Z,7.37
2017-12-13T19:40:43.228Z,5.95
2017-12-13T19:43:10.721Z,6.07
2017-12-13T19:45:38.222Z,9.13
2017-12-13T19:48:05.719Z,7.57
2017-12-13T19:50:33.980Z,8.30
2017-12-13T19:53:01.497Z,5.95
2017-12-13T19:55:28.992Z,5.85
2017-12-13T19:57:56.483Z,6.93
2017-12-13T20:00:24.036Z,9.80
2017-12-13T20:02:52.313Z,6.75
2017-12-13T20:05:20.576Z,6.03
2017-12-13T20:07:48.839Z,5.70
2017-12-13T20:10:16.331Z,5.35
2017-12-13T20:12:43.823Z,5.72
2017-12-13T20:15:17.147Z,6.53
2017-12-13T20:17:46.272Z,5.55
2017-12-13T20:20:14.612Z,5.03
2017-12-13T20:22:42.106Z,5.50
2017-12-13T20:25:10.398Z,5.50
2017-12-13T20:27:38.047Z,5.50
2017-12-13T20:30:06.345Z,5.25
2017-12-13T20:32:33.852Z,5.53
2017-12-13T20:35:01.344Z,5.32
2017-12-13T20:37:29.607Z,5.68
2017-12-13T20:39:57.876Z,5.07
2017-12-13T20:42:26.162Z,8.95
2017-12-13T20:44:54.430Z,11.07
2017-12-13T20:47:21.943Z,12.68
2017-12-13T20:49:49.460Z,11.70
2017-12-13T20:52:17.722Z,12.07
2017-12-13T20:54:45.999Z,11.73
2017-12-13T20:57:14.290Z,11.95
2017-12-13T20:59:42.562Z,12.52
2017-12-13T21:02:10.815Z,12.65
2017-12-13T21:04:39.835Z,12.35
2017-12-13T21:07:08.091Z,12.63
2017-12-13T21:09:35.602Z,13.23
2017-12-13T21:12:03.126Z,13.25
2017-12-13T21:14:31.448Z,13.10
2017-12-13T21:16:58.939Z,13.95
2017-12-13T21:19:27.199Z,12.77
2017-12-13T21:21:54.695Z,15.35
2017-12-13T21:24:22.971Z,12.23
2017-12-13T21:26:51.234Z,12.57
2017-12-13T21:29:18.731Z,14.27
2017-12-13T21:31:46.223Z,13.50
2017-12-13T21:34:13.735Z,13.90
2017-12-13T21:36:42.533Z,15.10
2017-12-13T21:39:10.031Z,13.23
2017-12-13T21:41:37.537Z,15.20
2017-12-13T21:44:05.804Z,17.40
2017-12-13T21:46:34.079Z,15.32
2017-12-13T21:49:02.338Z,15.50
2017-12-13T21:51:29.855Z,12.27
2017-12-13T21:53:57.359Z,12.88
2017-12-13T21:56:24.861Z,12.23
2017-12-13T21:58:52.371Z,15.98
2017-12-13T22:01:19.876Z,13.77
2017-12-13T22:03:47.393Z,15.10
2017-12-13T22:06:14.894Z,14.65
2017-12-13T22:08:42.407Z,15.07
2017-12-13T22:11:09.912Z,15.00
2017-12-13T22:13:37.411Z,15.80
2017-12-13T22:16:04.908Z,15.32
2017-12-13T22:18:32.415Z,14.82
2017-12-13T22:20:59.927Z,14.50
2017-12-13T22:23:27.427Z,13.90
2017-12-13T22:25:54.930Z,13.93
2017-12-13T22:28:23.208Z,14.20
2017-12-13T22:30:51.475Z,15.68
2017-12-13T22:33:19.739Z,16.12
2017-12-13T22:35:47.424Z,16.50
2017-12-13T22:38:15.688Z,14.43
2017-12-13T22:40:43.375Z,12.90
2017-12-13T22:43:10.900Z,14.07
2017-12-13T22:45:39.160Z,13.13
2017-12-13T22:48:06.668Z,14.25
2017-12-13T22:50:34.168Z,12.70
2017-12-13T22:53:01.679Z,14.55
2017-12-13T22:55:29.936Z,14.23
2017-12-13T22:57:57.428Z,13.27
2017-12-13T23:00:40.796Z,12.93
2017-12-13T23:03:08.301Z,13.38
2017-12-13T23:05:36.775Z,13.88
2017-12-13T23:08:05.054Z,11.82
2017-12-13T23:10:33.321Z,12.25
2017-12-13T23:13:01.712Z,12.20
2017-12-13T23:15:30.187Z,12.50
2017-12-13T23:17:58.459Z,11.80
2017-12-13T23:20:26.718Z,13.02
2017-12-13T23:22:54.237Z,11.70
2017-12-13T23:25:21.727Z,13.57
2017-12-13T23:27:49.224Z,12.75
2017-12-13T23:30:16.730Z,12.23
2017-12-13T23:32:44.231Z,12.65
2017-12-13T23:35:12.503Z,11.73
2017-12-13T23:37:40.760Z,12.45
2017-12-13T23:40:08.276Z,11.52
2017-12-13T23:42:35.779Z,10.93
2017-12-13T23:45:03.285Z,12.35
2017-12-13T23:47:30.787Z,11.55
2017-12-13T23:49:58.287Z,11.60
2017-12-13T23:52:25.791Z,10.55
2017-12-13T23:54:53.295Z,11.40
2017-12-13T23:57:21.587Z,10.93
2017-12-13T23:59:49.090Z,11.23
